createdAt,value
2019-05-10T00:00:39.498Z,64.80
2019-05-10T00:03:30.844Z,65.50
2019-05-10T00:06:21.644Z,64.20
2019-05-10T00:08:56.393Z,64.80
2019-05-10T00:11:49.120Z,64.50
2019-05-10T00:14:37.685Z,64.90
2019-05-10T00:17:12.651Z,66.10
2019-05-10T00:19:46.724Z,66.40
2019-05-10T00:22:20.676Z,65.70
2019-05-10T00:25:03.904Z,65.30
2019-05-10T00:27:29.822Z,64.90
2019-05-10T00:30:03.572Z,64.50
2019-05-10T00:32:39.930Z,64.10
2019-05-10T00:35:14.083Z,63.90
2019-05-10T00:37:48.079Z,64.10
2019-05-10T00:40:23.187Z,64.10
2019-05-10T00:42:56.832Z,63.70
2019-05-10T00:45:30.850Z,62.90
2019-05-10T00:48:04.585Z,62.30
2019-05-10T00:50:38.476Z,62.20
2019-05-10T00:53:12.167Z,63.00
2019-05-10T00:55:50.024Z,64.40
2019-05-10T00:58:23.732Z,63.30
2019-05-10T01:00:59.205Z,63.30
2019-05-10T01:03:33.524Z,63.70
2019-05-10T01:06:07.565Z,63.50
2019-05-10T01:08:44.835Z,62.70
2019-05-10T01:11:20.596Z,61.80
2019-05-10T01:13:54.686Z,61.70
2019-05-10T01:16:30.372Z,58.70
2019-05-10T01:19:04.207Z,58.20
2019-05-10T01:21:39.554Z,55.90
2019-05-10T01:24:13.146Z,55.70
2019-05-10T01:26:47.082Z,54.70
2019-05-10T01:29:20.789Z,52.80
2019-05-10T01:31:54.668Z,51.70
2019-05-10T01:34:30.873Z,51.00
2019-05-10T01:37:04.875Z,51.30
2019-05-10T01:39:39.658Z,50.60
2019-05-10T01:42:13.602Z,52.00
2019-05-10T01:44:48.702Z,53.00
2019-05-10T01:47:22.617Z,52.60
2019-05-10T01:49:56.476Z,52.90
2019-05-10T01:52:30.228Z,51.40
2019-05-10T01:55:08.949Z,53.10
2019-05-10T01:57:42.753Z,52.20
2019-05-10T02:00:17.059Z,50.40
2019-05-10T02:02:50.796Z,49.80
2019-05-10T02:05:26.762Z,50.40
2019-05-10T02:08:00.960Z,48.80
2019-05-10T02:10:35.158Z,47.60
2019-05-10T02:13:08.871Z,48.00
2019-05-10T02:15:43.536Z,46.20
2019-05-10T02:18:18.676Z,47.10
2019-05-10T02:20:54.339Z,45.90
2019-05-10T02:23:27.904Z,46.20
2019-05-10T02:26:09.535Z,46.40
2019-05-10T02:28:37.818Z,45.90
2019-05-10T02:31:14.468Z,46.20
2019-05-10T02:33:48.481Z,45.40
2019-05-10T02:36:22.442Z,44.40
2019-05-10T02:38:56.934Z,42.70
2019-05-10T02:41:40.350Z,41.80
2019-05-10T02:47:14.117Z,41.70
2019-05-10T02:49:48.185Z,42.10
2019-05-10T02:52:23.259Z,42.60
2019-05-10T02:54:59.723Z,43.10
2019-05-10T02:57:35.258Z,43.70
2019-05-10T03:00:13.263Z,43.60
2019-05-10T03:02:47.270Z,42.70
2019-05-10T03:05:22.752Z,42.30
2019-05-10T03:07:57.738Z,44.60
2019-05-10T03:10:35.040Z,43.20
2019-05-10T03:13:09.106Z,42.70
2019-05-10T03:15:47.412Z,42.80
2019-05-10T03:18:23.920Z,43.10
2019-05-10T03:20:58.824Z,42.20
2019-05-10T03:23:32.662Z,41.80
2019-05-10T03:26:10.020Z,41.40
2019-05-10T03:28:53.994Z,42.80
2019-05-10T03:31:29.368Z,43.00
2019-05-10T03:34:04.268Z,41.30
2019-05-10T03:36:42.905Z,43.00
2019-05-10T03:39:16.963Z,42.40
2019-05-10T03:41:51.969Z,42.50
2019-05-10T03:44:26.194Z,42.80
2019-05-10T03:47:00.042Z,42.50
2019-05-10T03:49:33.918Z,42.70
2019-05-10T03:52:08.157Z,42.80
2019-05-10T03:54:43.513Z,41.90
2019-05-10T03:57:17.667Z,42.50
2019-05-10T03:59:55.255Z,42.50
2019-05-10T04:02:31.290Z,44.10
2019-05-10T04:05:05.361Z,46.10
2019-05-10T04:07:42.078Z,46.10
2019-05-10T04:10:20.333Z,44.00
2019-05-10T04:12:51.596Z,44.20
2019-05-10T04:15:25.500Z,45.50
2019-05-10T04:17:59.941Z,42.90
2019-05-10T04:20:33.758Z,43.10
2019-05-10T04:23:14.011Z,45.20
2019-05-10T04:25:47.736Z,44.10
2019-05-10T04:28:21.721Z,43.20
2019-05-10T04:30:55.700Z,42.40
2019-05-10T04:33:31.356Z,43.50
2019-05-10T04:36:12.237Z,42.40
2019-05-10T04:38:54.688Z,42.90
2019-05-10T04:41:30.027Z,42.20
2019-05-10T04:44:08.205Z,44.20
2019-05-10T04:46:46.230Z,45.50
2019-05-10T04:49:25.624Z,45.00
2019-05-10T04:51:59.281Z,43.80
2019-05-10T04:54:37.808Z,44.40
2019-05-10T04:57:11.548Z,43.50
2019-05-10T04:59:48.477Z,43.30
2019-05-10T05:02:23.115Z,44.10
2019-05-10T05:04:56.910Z,44.50
2019-05-10T05:07:35.554Z,43.80
2019-05-10T05:10:11.762Z,44.30
2019-05-10T05:12:47.969Z,44.70
2019-05-10T05:15:23.202Z,44.00
2019-05-10T05:17:57.536Z,44.30
2019-05-10T05:20:35.681Z,44.10
2019-05-10T05:23:19.010Z,43.90
2019-05-10T05:25:56.122Z,44.00
2019-05-10T05:28:31.716Z,44.00
2019-05-10T05:31:06.079Z,45.60
2019-05-10T05:33:40.280Z,44.30
2019-05-10T05:36:19.270Z,45.40
2019-05-10T05:38:53.995Z,44.20
2019-05-10T05:41:31.728Z,44.80
2019-05-10T05:44:04.465Z,44.70
2019-05-10T05:46:40.078Z,44.90
2019-05-10T05:49:23.063Z,45.30
2019-05-10T05:52:03.781Z,46.30
2019-05-10T05:54:42.409Z,45.90
2019-05-10T05:57:22.177Z,45.80
2019-05-10T05:59:57.771Z,45.30
2019-05-10T06:02:32.732Z,46.50
2019-05-10T06:05:06.879Z,45.50
2019-05-10T06:07:45.418Z,45.80
2019-05-10T06:10:19.997Z,46.30
2019-05-10T06:12:53.893Z,46.70
2019-05-10T06:15:31.589Z,45.40
2019-05-10T06:18:09.780Z,45.20
2019-05-10T06:20:45.092Z,44.50
2019-05-10T06:23:20.756Z,44.70
2019-05-10T06:25:56.510Z,44.80
2019-05-10T06:28:56.822Z,45.50
2019-05-10T06:31:06.982Z,45.10
2019-05-10T06:33:46.787Z,44.40
2019-05-10T06:36:22.621Z,44.80
2019-05-10T06:38:58.434Z,45.10
2019-05-10T06:41:32.709Z,44.90
2019-05-10T06:44:06.622Z,44.80
2019-05-10T06:46:41.089Z,44.20
2019-05-10T06:49:17.513Z,44.10
2019-05-10T06:51:51.739Z,44.60
2019-05-10T06:54:27.663Z,44.50
2019-05-10T06:57:11.015Z,44.50
2019-05-10T06:59:46.016Z,45.00
2019-05-10T07:02:26.850Z,44.30
2019-05-10T07:04:56.688Z,43.50
2019-05-10T07:07:43.224Z,44.20
2019-05-10T07:10:15.700Z,44.30
2019-05-10T07:12:57.137Z,44.30
2019-05-10T07:15:30.194Z,43.50
2019-05-10T07:18:04.250Z,43.30
2019-05-10T07:20:42.782Z,43.60
2019-05-10T07:23:14.410Z,43.00
2019-05-10T07:25:50.105Z,41.70
2019-05-10T07:28:29.685Z,42.90
2019-05-10T07:31:12.786Z,42.90
2019-05-10T07:33:46.785Z,43.30
2019-05-10T07:36:27.162Z,43.60
2019-05-10T07:39:07.681Z,43.40
2019-05-10T07:41:40.849Z,43.40
2019-05-10T07:44:16.150Z,43.70
2019-05-10T07:46:54.308Z,43.30
2019-05-10T07:49:30.118Z,43.50
2019-05-10T07:52:02.270Z,43.00
2019-05-10T07:54:45.107Z,42.40
2019-05-10T07:57:18.534Z,42.70
2019-05-10T07:59:57.519Z,42.00
2019-05-10T08:02:31.433Z,42.70
2019-05-10T08:05:10.879Z,42.10
2019-05-10T08:07:42.521Z,41.40
2019-05-10T08:10:21.583Z,42.30
2019-05-10T08:12:59.502Z,40.70
2019-05-10T08:15:43.747Z,41.40
2019-05-10T08:18:25.274Z,42.60
2019-05-10T08:21:02.160Z,42.30
2019-05-10T08:23:32.846Z,42.30
2019-05-10T08:26:11.053Z,41.70
2019-05-10T08:28:52.564Z,42.00
2019-05-10T08:31:50.469Z,41.70
2019-05-10T08:34:15.613Z,41.50
2019-05-10T08:36:51.610Z,41.10
2019-05-10T08:39:25.113Z,41.20
2019-05-10T08:42:04.848Z,41.30
2019-05-10T08:44:34.190Z,41.00
2019-05-10T08:47:15.763Z,41.10
2019-05-10T08:49:59.437Z,41.40
2019-05-10T08:52:30.822Z,42.00
2019-05-10T08:55:02.786Z,41.60
2019-05-10T08:57:47.768Z,42.10
2019-05-10T09:00:37.111Z,42.10
2019-05-10T09:03:00.955Z,41.90
2019-05-10T09:05:34.067Z,41.70
2019-05-10T09:08:20.351Z,42.40
2019-05-10T09:10:52.928Z,42.00
2019-05-10T09:13:28.814Z,41.70
2019-05-10T09:16:04.044Z,41.90
2019-05-10T09:18:42.693Z,42.20
2019-05-10T09:21:14.317Z,42.60
2019-05-10T09:24:01.522Z,42.00
2019-05-10T09:26:38.245Z,42.10
2019-05-10T09:29:17.355Z,42.20
2019-05-10T09:31:56.240Z,42.00
2019-05-10T09:34:34.258Z,42.60
2019-05-10T09:37:16.073Z,42.90
2019-05-10T09:39:44.711Z,43.50
2019-05-10T09:42:26.488Z,43.70
2019-05-10T09:45:09.515Z,43.80
2019-05-10T09:47:43.355Z,44.90
2019-05-10T09:50:17.099Z,46.00
2019-05-10T09:52:52.486Z,47.70
2019-05-10T09:55:29.811Z,49.00
2019-05-10T09:58:03.612Z,49.90
2019-05-10T10:00:42.622Z,50.10
2019-05-10T10:03:18.097Z,50.50
2019-05-10T10:05:55.389Z,50.30
2019-05-10T10:08:28.548Z,51.00
2019-05-10T10:11:11.568Z,51.10
2019-05-10T10:13:44.081Z,51.40
2019-05-10T10:16:19.186Z,51.90
2019-05-10T10:18:55.215Z,52.00
2019-05-10T10:21:35.036Z,52.40
2019-05-10T10:24:14.499Z,52.90
2019-05-10T10:26:41.282Z,53.60
2019-05-10T10:29:17.250Z,54.20
2019-05-10T10:31:58.723Z,55.40
2019-05-10T10:34:32.672Z,55.50
2019-05-10T10:37:07.845Z,55.00
2019-05-10T10:39:47.677Z,55.50
2019-05-10T10:42:25.996Z,56.30
2019-05-10T10:45:02.085Z,56.20
2019-05-10T10:47:57.474Z,55.60
2019-05-10T10:50:44.488Z,56.60
2019-05-10T10:53:17.955Z,57.00
2019-05-10T10:56:03.482Z,56.70
2019-05-10T10:58:50.396Z,57.30
2019-05-10T11:01:25.515Z,56.90
2019-05-10T11:04:03.671Z,57.10
2019-05-10T11:06:34.913Z,57.30
2019-05-10T11:09:11.936Z,57.50
2019-05-10T11:11:47.048Z,57.60
2019-05-10T11:14:23.319Z,57.60
2019-05-10T11:17:01.067Z,57.90
2019-05-10T11:19:34.270Z,58.00
2019-05-10T11:22:09.679Z,58.30
2019-05-10T11:24:43.526Z,58.30
2019-05-10T11:27:21.781Z,58.20
2019-05-10T11:29:56.928Z,58.40
2019-05-10T11:32:31.471Z,58.60
2019-05-10T11:35:05.687Z,59.10
2019-05-10T11:37:42.098Z,58.10
2019-05-10T11:40:18.121Z,58.50
2019-05-10T11:42:53.102Z,58.40
2019-05-10T11:45:34.478Z,58.90
2019-05-10T11:48:10.869Z,59.40
2019-05-10T11:50:46.668Z,59.80
2019-05-10T11:53:24.017Z,59.70
2019-05-10T11:55:58.177Z,59.20
2019-05-10T11:58:37.661Z,59.40
2019-05-10T12:03:50.197Z,60.30
2019-05-10T12:06:25.846Z,60.60
2019-05-10T12:09:31.695Z,60.40
2019-05-10T12:11:56.946Z,60.80
2019-05-10T12:17:43.858Z,61.00
2019-05-10T12:20:39.129Z,60.20
2019-05-10T12:23:03.184Z,60.40
2019-05-10T12:25:51.236Z,61.30
2019-05-10T12:26:21.452Z,59.80
2019-05-10T12:28:24.459Z,60.80
2019-05-10T12:31:01.656Z,61.90
2019-05-10T12:33:37.713Z,62.30
2019-05-10T12:36:22.112Z,62.20
2019-05-10T12:38:58.383Z,62.70
2019-05-10T12:41:39.703Z,63.00
2019-05-10T12:44:13.743Z,63.20
2019-05-10T12:46:53.816Z,63.60
2019-05-10T12:49:23.784Z,64.00
2019-05-10T12:52:03.335Z,64.60
2019-05-10T12:54:37.535Z,63.90
2019-05-10T12:57:11.956Z,64.10
2019-05-10T12:59:47.222Z,63.60
2019-05-10T13:02:28.890Z,64.20
2019-05-10T13:05:17.019Z,64.70
2019-05-10T13:08:24.382Z,62.40
2019-05-10T13:11:08.938Z,63.10
2019-05-10T13:14:55.043Z,63.90
2019-05-10T13:17:54.897Z,63.60
2019-05-10T13:23:28.010Z,65.50
2019-05-10T13:26:07.862Z,65.70
2019-05-10T13:28:50.425Z,65.40
2019-05-10T13:31:27.973Z,64.00
2019-05-10T13:34:04.620Z,65.00
2019-05-10T13:36:43.824Z,64.30
2019-05-10T13:39:19.059Z,64.80
2019-05-10T13:41:57.131Z,66.00
2019-05-10T13:44:29.546Z,65.30
2019-05-10T13:47:05.912Z,66.20
2019-05-10T13:49:41.229Z,65.20
2019-05-10T13:52:16.286Z,66.10
2019-05-10T13:54:52.966Z,66.00
2019-05-10T13:57:28.839Z,66.70
2019-05-10T14:00:03.270Z,67.20
2019-05-10T14:02:37.276Z,67.20
2019-05-10T14:05:17.488Z,67.50
2019-05-10T14:07:54.372Z,67.40
2019-05-10T14:10:28.872Z,66.90
2019-05-10T14:13:11.139Z,68.40
2019-05-10T14:15:55.563Z,68.00
2019-05-10T14:18:34.184Z,68.20
2019-05-10T14:21:09.584Z,68.30
2019-05-10T14:23:52.348Z,68.40
2019-05-10T14:26:31.536Z,69.60
2019-05-10T14:29:11.058Z,68.80
2019-05-10T14:31:47.366Z,69.00
2019-05-10T14:34:24.121Z,69.20
2019-05-10T14:36:59.230Z,68.70
2019-05-10T14:39:38.125Z,69.10
2019-05-10T14:42:24.147Z,69.10
2019-05-10T14:44:59.270Z,69.30
2019-05-10T14:47:46.273Z,69.10
2019-05-10T14:50:25.896Z,69.10
2019-05-10T14:53:07.484Z,69.40
2019-05-10T14:56:20.247Z,69.00
2019-05-10T15:05:42.330Z,70.80
2019-05-10T15:08:51.729Z,70.70
2019-05-10T15:11:34.638Z,69.80
2019-05-10T15:14:10.665Z,70.00
2019-05-10T15:16:57.582Z,70.70
2019-05-10T15:19:55.877Z,70.20
2019-05-10T15:22:48.733Z,70.60
2019-05-10T15:28:21.047Z,71.00
2019-05-10T15:30:56.242Z,70.60
2019-05-10T15:33:34.793Z,70.90
2019-05-10T15:36:12.765Z,71.60
2019-05-10T15:38:52.443Z,71.80
2019-05-10T15:41:29.578Z,72.10
2019-05-10T15:44:05.615Z,71.90
2019-05-10T15:46:42.917Z,71.60
2019-05-10T15:49:24.553Z,72.10
2019-05-10T15:52:17.514Z,72.00
2019-05-10T15:54:47.288Z,72.00
2019-05-10T15:57:37.423Z,72.20
2019-05-10T16:00:25.475Z,72.00
2019-05-10T16:06:01.128Z,72.90
2019-05-10T16:08:42.271Z,72.40
2019-05-10T16:11:20.770Z,72.30
2019-05-10T16:14:01.714Z,72.70
2019-05-10T16:19:27.311Z,73.10
2019-05-10T16:22:09.442Z,72.80
2019-05-10T16:24:48.420Z,72.80
2019-05-10T16:27:24.000Z,73.40
2019-05-10T16:30:18.298Z,73.50
2019-05-10T16:33:02.358Z,73.40
2019-05-10T16:35:44.224Z,73.40
2019-05-10T16:38:21.868Z,73.40
2019-05-10T16:41:00.232Z,73.30
2019-05-10T16:43:31.618Z,73.60
2019-05-10T16:46:17.018Z,73.50
2019-05-10T16:48:52.528Z,73.40
2019-05-10T16:51:27.443Z,73.50
2019-05-10T16:54:24.370Z,73.20
2019-05-10T16:57:01.102Z,73.70
2019-05-10T16:59:48.464Z,73.60
2019-05-10T17:02:23.962Z,73.60
2019-05-10T17:05:09.861Z,73.70
2019-05-10T17:07:53.805Z,73.80
2019-05-10T17:10:32.718Z,72.90
2019-05-10T17:13:12.200Z,72.80
2019-05-10T17:15:55.988Z,74.00
2019-05-10T17:18:29.454Z,72.90
2019-05-10T17:21:03.435Z,73.30
2019-05-10T17:23:41.587Z,73.70
2019-05-10T17:26:13.897Z,74.00
2019-05-10T17:28:52.084Z,74.50
2019-05-10T17:31:26.221Z,73.70
2019-05-10T17:34:00.280Z,73.90
2019-05-10T17:36:38.902Z,73.90
2019-05-10T17:39:12.957Z,74.20
2019-05-10T17:41:48.457Z,74.20
2019-05-10T17:44:25.071Z,74.80
2019-05-10T17:47:01.221Z,74.60
2019-05-10T17:49:39.451Z,75.00
2019-05-10T17:52:15.492Z,75.10
2019-05-10T17:54:50.546Z,75.80
2019-05-10T17:57:27.745Z,75.50
2019-05-10T18:00:01.069Z,74.90
2019-05-10T18:02:35.041Z,75.40
2019-05-10T18:05:09.145Z,75.80
2019-05-10T18:07:44.826Z,75.50
2019-05-10T18:10:18.703Z,75.70
2019-05-10T18:13:02.948Z,76.00
2019-05-10T18:15:32.998Z,75.90
2019-05-10T18:18:07.793Z,76.10
2019-05-10T18:20:44.508Z,76.20
2019-05-10T18:23:21.483Z,76.50
2019-05-10T18:25:58.497Z,76.20
2019-05-10T18:28:28.994Z,76.00
2019-05-10T18:31:04.391Z,76.60
2019-05-10T18:33:48.237Z,76.90
2019-05-10T18:36:16.342Z,77.00
2019-05-10T18:38:52.066Z,77.20
2019-05-10T18:41:27.769Z,77.40
2019-05-10T18:44:05.664Z,77.30
2019-05-10T18:46:41.865Z,77.90
2019-05-10T18:49:17.538Z,78.20
2019-05-10T18:51:51.552Z,78.30
2019-05-10T18:54:25.272Z,78.00
2019-05-10T18:57:04.574Z,78.20
2019-05-10T18:59:39.778Z,78.10
2019-05-10T19:02:11.896Z,78.10
2019-05-10T19:04:51.961Z,78.50
2019-05-10T19:07:26.227Z,78.60
2019-05-10T19:09:59.915Z,78.20
2019-05-10T19:12:35.394Z,78.30
2019-05-10T19:15:15.100Z,78.60
2019-05-10T19:17:45.897Z,79.20
2019-05-10T19:20:20.174Z,79.10
2019-05-10T19:22:54.148Z,78.80
2019-05-10T19:25:29.467Z,78.80
2019-05-10T19:28:03.542Z,78.70
2019-05-10T19:30:39.000Z,79.40
2019-05-10T19:33:14.373Z,79.00
2019-05-10T19:35:48.584Z,79.40
2019-05-10T19:38:22.329Z,79.90
2019-05-10T19:40:56.389Z,79.70
2019-05-10T19:43:30.284Z,79.60
2019-05-10T19:46:05.759Z,80.20
2019-05-10T19:48:39.580Z,80.10
2019-05-10T19:51:13.959Z,79.70
2019-05-10T19:53:48.008Z,79.80
2019-05-10T19:56:21.905Z,80.30
2019-05-10T19:58:56.885Z,80.20
2019-05-10T20:01:30.619Z,80.40
2019-05-10T20:04:04.466Z,80.30
2019-05-10T20:06:38.211Z,80.30
2019-05-10T20:09:12.064Z,79.90
2019-05-10T20:11:45.800Z,80.90
2019-05-10T20:14:19.882Z,80.90
2019-05-10T20:16:53.947Z,80.60
2019-05-10T20:19:29.248Z,80.30
2019-05-10T20:22:03.703Z,79.60
2019-05-10T20:24:37.873Z,80.40
2019-05-10T20:27:11.913Z,80.20
2019-05-10T20:29:45.859Z,80.80
2019-05-10T20:32:21.090Z,80.80
2019-05-10T20:34:54.973Z,80.80
2019-05-10T20:37:28.791Z,80.80
2019-05-10T20:40:04.291Z,81.20
2019-05-10T20:42:39.846Z,81.70
2019-05-10T20:45:14.023Z,81.60
2019-05-10T20:47:48.167Z,81.50
2019-05-10T20:50:23.149Z,81.80
2019-05-10T20:52:56.959Z,81.60
2019-05-10T20:55:32.818Z,81.60
2019-05-10T20:58:06.708Z,81.50
2019-05-10T21:00:40.975Z,82.10
2019-05-10T21:03:15.342Z,81.80
2019-05-10T21:05:49.346Z,81.60
2019-05-10T21:08:25.142Z,82.00
2019-05-10T21:10:59.065Z,82.10
2019-05-10T21:13:32.918Z,82.30
2019-05-10T21:16:08.409Z,82.60
2019-05-10T21:18:42.231Z,82.60
2019-05-10T21:21:16.174Z,82.40
2019-05-10T21:23:50.973Z,82.80
2019-05-10T21:26:25.406Z,82.90
2019-05-10T21:28:59.124Z,83.10
2019-05-10T21:31:34.763Z,83.30
2019-05-10T21:34:10.020Z,82.80
2019-05-10T21:36:43.521Z,82.80
2019-05-10T21:39:18.776Z,82.90
2019-05-10T21:41:52.848Z,82.90
2019-05-10T21:44:26.653Z,83.10
2019-05-10T21:47:00.508Z,83.40
2019-05-10T21:49:34.278Z,83.20
2019-05-10T21:52:08.182Z,83.00
2019-05-10T21:54:42.218Z,83.30
2019-05-10T21:57:16.317Z,83.20
2019-05-10T21:59:50.770Z,83.50
2019-05-10T22:02:24.360Z,83.40
2019-05-10T22:04:58.797Z,83.60
2019-05-10T22:07:32.562Z,83.50
2019-05-10T22:10:07.437Z,83.80
2019-05-10T22:12:41.188Z,83.50
2019-05-10T22:15:16.308Z,82.90
2019-05-10T22:17:50.263Z,83.30
2019-05-10T22:20:24.284Z,82.90
2019-05-10T22:22:58.130Z,83.70
2019-05-10T22:25:32.164Z,84.10
2019-05-10T22:28:06.003Z,84.10
2019-05-10T22:30:41.958Z,83.90
2019-05-10T22:33:18.580Z,83.30
2019-05-10T22:35:52.799Z,83.20
2019-05-10T22:38:28.437Z,83.50
2019-05-10T22:41:02.608Z,83.60
2019-05-10T22:43:36.302Z,83.40
2019-05-10T22:46:10.199Z,83.30
2019-05-10T22:48:44.066Z,83.50
2019-05-10T22:51:17.927Z,83.60
2019-05-10T22:53:59.459Z,83.20
2019-05-10T22:56:27.214Z,82.70
2019-05-10T22:59:01.028Z,82.40
2019-05-10T23:01:35.026Z,82.60
2019-05-10T23:04:09.813Z,83.00
2019-05-10T23:06:44.452Z,83.90
2019-05-10T23:09:24.476Z,84.20
2019-05-10T23:11:55.303Z,83.30
2019-05-10T23:14:29.219Z,82.60
2019-05-10T23:17:03.435Z,81.80
2019-05-10T23:19:37.241Z,81.70
2019-05-10T23:22:11.512Z,82.50
2019-05-10T23:24:48.173Z,82.10
2019-05-10T23:27:22.790Z,80.50
2019-05-10T23:29:56.609Z,79.90
2019-05-10T23:32:32.321Z,79.20
2019-05-10T23:35:06.247Z,79.20
2019-05-10T23:37:40.559Z,78.90
2019-05-10T23:40:14.910Z,78.30
2019-05-10T23:42:49.037Z,77.80
2019-05-10T23:45:22.814Z,77.40
2019-05-10T23:47:56.750Z,77.10
2019-05-10T23:50:30.482Z,77.10
2019-05-10T23:53:05.767Z,76.30
2019-05-10T23:55:41.327Z,75.30
2019-05-10T23:58:16.885Z,75.20
